Terminal Aerodrome Forecast
Issued by NWS Boston, MA

Home | Current Version | Previous Version | Text Only | Print | Product List | Glossary Off
Versions: 1 2 3 4 5 6 7 8 9 10 11 12 13 14 15 16 17 18 19 20 21 22 23 24 25 26 27 28 29 30
000 FTUS41 KBOX 190538 TAFBDL TAF KBDL 190538Z 1906/2012 00000KT P6SM FEW150 FM191700 19010G17KT P6SM SCT200 FM191900 19011G18KT P6SM VCSH BKN100 FM192000 19011KT P6SM VCSH BKN030 FM192300 19009KT 6SM -SHRA OVC020 FM200100 19007KT 4SM BR VCSH OVC015 FM200600 20006KT P6SM OVC015 FM200900 20006KT P6SM OVC080=

USA.gov is the U.S. government's official web portal to all federal, state and local government web resources and services.